Time,TemperatureF,DewpointF,PressureIn,WindDirection,WindDirectionDegrees,WindSpeedMPH,WindSpeedGustMPH,Humidity,HourlyPrecipIn,Conditions,Clouds,dailyrainin,SolarRadiationWatts/m^2,SoftwareType,DateUTC
2013-09-27 00:00:00,56.0,51.6,30.10,NW,315,2.0,4.0,85,0.00,,,0.00,0.00,VWS V14.01,2013-09-27 04:00:00,
2013-09-27 00:01:00,56.2,52.1,30.10,NNW,329,3.0,4.0,86,0.00,,,0.00,0.00,VWS V14.01,2013-09-27 04:01:00,
2013-09-27 00:06:00,56.1,52.0,30.10,NW,323,1.0,4.0,86,0.00,,,0.00,0.00,VWS V14.01,2013-09-27 04:06:00,
2013-09-27 00:11:00,56.2,52.1,30.10,NW,323,2.0,4.0,86,0.00,,,0.00,0.00,VWS V14.01,2013-09-27 04:11:00,
2013-09-27 00:16:00,56.1,52.0,30.10,NNW,342,0.0,3.0,86,0.00,,,0.00,0.00,VWS V14.01,2013-09-27 04:16:00,
2013-09-27 00:21:00,56.1,51.7,30.10,NNW,331,2.0,5.0,85,0.00,,,0.00,0.00,VWS V14.01,2013-09-27 04:21:00,
2013-09-27 00:26:00,56.1,51.7,30.10,NW,323,3.0,5.0,85,0.00,,,0.00,0.00,VWS V14.01,2013-09-27 04:26:00,
2013-09-27 00:30:00,56.2,51.8,30.10,NW,313,2.0,4.0,85,0.00,,,0.00,0.00,VWS V14.01,2013-09-27 04:30:00,
2013-09-27 00:32:00,56.2,51.8,30.10,NNW,344,1.0,4.0,85,0.00,,,0.00,0.00,VWS V14.01,2013-09-27 04:32:00,
2013-09-27 00:37:00,56.3,51.5,30.10,NNW,345,1.0,5.0,84,0.00,,,0.00,0.00,VWS V14.01,2013-09-27 04:37:00,
2013-09-27 00:42:00,56.4,51.3,30.10,NNW,339,2.0,5.0,83,0.00,,,0.00,0.00,VWS V14.01,2013-09-27 04:42:00,
2013-09-27 00:45:00,56.2,51.8,30.10,NW,320,2.0,4.0,85,0.00,,,0.00,0.00,VWS V14.01,2013-09-27 04:45:00,
2013-09-27 00:47:00,56.6,51.2,30.10,NNW,346,3.0,5.0,82,0.00,,,0.00,0.00,VWS V14.01,2013-09-27 04:47:00,
2013-09-27 00:52:00,56.7,51.3,30.10,North,355,7.0,7.0,82,0.00,,,0.00,0.00,VWS V14.01,2013-09-27 04:52:00,
2013-09-27 00:57:00,56.8,51.0,30.10,North,349,4.0,7.0,81,0.00,,,0.00,0.00,VWS V14.01,2013-09-27 04:57:00,
2013-09-27 01:00:00,56.2,52.1,30.10,NNW,329,3.0,4.0,86,0.00,,,0.00,0.00,VWS V14.01,2013-09-27 05:00:00,
2013-09-27 01:02:00,56.8,51.0,30.10,NNW,348,5.0,6.0,81,0.00,,,0.00,0.00,VWS V14.01,2013-09-27 05:02:00,
2013-09-27 01:07:00,56.8,51.0,30.10,NNW,338,2.0,7.0,81,0.00,,,0.00,0.00,VWS V14.01,2013-09-27 05:07:00,
2013-09-27 01:12:00,56.7,50.9,30.11,NNW,347,5.0,7.0,81,0.00,,,0.00,0.00,VWS V14.01,2013-09-27 05:12:00,
2013-09-27 01:17:00,56.7,50.9,30.11,NNW,346,3.0,6.0,81,0.00,,,0.00,0.00,VWS V14.01,2013-09-27 05:17:00,
2013-09-27 01:22:00,56.6,51.2,30.11,NNW,342,4.0,7.0,82,0.00,,,0.00,0.00,VWS V14.01,2013-09-27 05:22:00,
2013-09-27 01:27:00,56.6,51.0,30.11,NNW,338,4.0,-999.0,82,-99.99,,,0.00,0,weatherlink.com 1.10,2013-09-27 05:27:00,
2013-09-27 01:30:00,56.2,51.8,30.10,NNW,334,3.0,5.0,85,0.00,,,0.00,0.00,VWS V14.01,2013-09-27 05:30:00,
2013-09-27 01:32:00,56.5,51.1,30.11,NNW,339,3.0,7.0,82,0.00,,,0.00,0.00,VWS V14.01,2013-09-27 05:32:00,
2013-09-27 01:37:00,56.5,51.1,30.11,North,355,2.0,7.0,82,0.00,,,0.00,0.00,VWS V14.01,2013-09-27 05:37:00,
2013-09-27 01:42:00,56.5,51.4,30.11,North,355,3.0,7.0,83,0.00,,,0.00,0.00,VWS V14.01,2013-09-27 05:42:00,
2013-09-27 01:45:00,56.6,51.2,30.10,North,360,5.0,6.0,82,0.00,,,0.00,0.00,VWS V14.01,2013-09-27 05:45:00,
2013-09-27 01:47:00,56.4,51.3,30.11,NW,324,3.0,5.0,83,0.00,,,0.00,0.00,VWS V14.01,2013-09-27 05:47:00,
2013-09-27 01:52:00,56.4,51.3,30.11,NNW,338,4.0,6.0,83,0.00,,,0.00,0.00,VWS V14.01,2013-09-27 05:52:00,
2013-09-27 01:57:00,56.4,51.3,30.11,NW,321,0.0,7.0,83,0.00,,,0.00,0.00,VWS V14.01,2013-09-27 05:57:00,
2013-09-27 02:00:00,56.8,51.0,30.10,North,355,2.0,7.0,81,0.00,,,0.00,0.00,VWS V14.01,2013-09-27 06:00:00,
2013-09-27 02:02:00,56.4,51.6,30.11,NW,319,5.0,8.0,84,0.00,,,0.00,0.00,VWS V14.01,2013-09-27 06:02:00,
2013-09-27 02:07:00,56.3,51.5,30.11,NW,313,6.0,8.0,84,0.00,,,0.00,0.00,VWS V14.01,2013-09-27 06:07:00,
2013-09-27 02:12:00,56.2,51.4,30.11,NNW,333,3.0,8.0,84,0.00,,,0.00,0.00,VWS V14.01,2013-09-27 06:12:00,
2013-09-27 02:17:00,56.1,51.7,30.11,NW,311,4.0,5.0,85,0.00,,,0.00,0.00,VWS V14.01,2013-09-27 06:17:00,
2013-09-27 02:22:00,56.1,51.7,30.11,NNW,342,2.0,6.0,85,0.00,,,0.00,0.00,VWS V14.01,2013-09-27 06:22:00,
2013-09-27 02:27:00,56.1,51.7,30.11,North,9,3.0,8.0,85,0.00,,,0.00,0.00,VWS V14.01,2013-09-27 06:27:00,
2013-09-27 02:32:00,56.1,51.7,30.11,North,350,2.0,5.0,85,0.00,,,0.00,0.00,VWS V14.01,2013-09-27 06:32:00,
2013-09-27 02:37:00,56.1,52.0,30.11,NW,317,4.0,9.0,86,0.00,,,0.00,0.00,VWS V14.01,2013-09-27 06:37:00,
2013-09-27 02:42:00,56.1,52.0,30.11,NW,325,5.0,9.0,86,0.00,,,0.00,0.00,VWS V14.01,2013-09-27 06:42:00,
2013-09-27 02:47:00,56.0,51.9,30.11,NW,314,6.0,8.0,86,0.00,,,0.00,0.00,VWS V14.01,2013-09-27 06:47:00,
2013-09-27 02:52:00,56.0,51.9,30.11,NW,312,4.0,8.0,86,0.00,,,0.00,0.00,VWS V14.01,2013-09-27 06:52:00,
2013-09-27 02:57:00,56.0,52.2,30.11,NW,318,0.0,8.0,87,0.00,,,0.00,0.00,VWS V14.01,2013-09-27 06:57:00,
2013-09-27 03:00:00,56.4,51.3,30.11,NW,324,2.0,7.0,83,0.00,,,0.00,0.00,VWS V14.01,2013-09-27 07:00:00,
2013-09-27 03:02:00,56.0,52.2,30.11,NNW,339,1.0,6.0,87,0.00,,,0.00,0.00,VWS V14.01,2013-09-27 07:02:00,
2013-09-27 03:07:00,56.0,52.2,30.11,NNE,19,0.0,8.0,87,0.00,,,0.00,0.00,VWS V14.01,2013-09-27 07:07:00,
2013-09-27 03:12:00,56.0,52.2,30.11,NNW,346,1.0,8.0,87,0.00,,,0.00,0.00,VWS V14.01,2013-09-27 07:12:00,
2013-09-27 03:17:00,56.0,52.5,30.11,NNW,328,0.0,3.0,88,0.00,,,0.00,0.00,VWS V14.01,2013-09-27 07:17:00,
2013-09-27 03:22:00,55.9,52.0,30.11,North,351,4.0,-999.0,88,-99.99,,,0.00,0,weatherlink.com 1.10,2013-09-27 07:22:00,
2013-09-27 03:27:00,55.9,52.4,30.11,NNW,340,4.0,7.0,88,0.00,,,0.00,0.00,VWS V14.01,2013-09-27 07:27:00,
2013-09-27 03:32:00,56.0,52.5,30.11,NW,321,4.0,6.0,88,0.00,,,0.00,0.00,VWS V14.01,2013-09-27 07:32:00,
2013-09-27 03:37:00,56.0,52.5,30.11,NW,314,4.0,8.0,88,0.00,,,0.00,0.00,VWS V14.01,2013-09-27 07:37:00,
2013-09-27 03:42:00,56.0,52.8,30.11,NNW,338,4.0,8.0,89,0.00,,,0.00,0.00,VWS V14.01,2013-09-27 07:42:00,
2013-09-27 03:45:00,56.0,51.9,30.11,NNW,336,4.0,9.0,86,0.00,,,0.00,0.00,VWS V14.01,2013-09-27 07:45:00,
2013-09-27 03:47:00,56.0,52.8,30.11,NNW,335,0.0,4.0,89,0.00,,,0.00,0.00,VWS V14.01,2013-09-27 07:47:00,
2013-09-27 03:50:00,56.0,52.8,30.11,NW,321,5.0,5.0,89,0.00,,,0.00,0.00,VWS V14.01,2013-09-27 07:50:00,
2013-09-27 03:55:00,56.1,52.9,30.11,NNE,16,1.0,7.0,89,0.00,,,0.00,0.00,VWS V14.01,2013-09-27 07:55:00,
2013-09-27 04:00:00,56.1,52.9,30.12,NNW,331,3.0,8.0,89,0.00,,,0.00,0.00,VWS V14.01,2013-09-27 08:00:00,
2013-09-27 04:05:00,56.2,53.0,30.11,North,355,5.0,8.0,89,0.00,,,0.00,0.00,VWS V14.01,2013-09-27 08:05:00,
2013-09-27 04:10:00,56.2,53.0,30.11,NNW,344,2.0,8.0,89,0.00,,,0.00,0.00,VWS V14.01,2013-09-27 08:10:00,
2013-09-27 04:15:00,56.3,53.1,30.12,North,355,7.0,8.0,89,0.00,,,0.00,0.00,VWS V14.01,2013-09-27 08:15:00,
2013-09-27 04:20:00,56.4,53.2,30.12,North,5,5.0,7.0,89,0.00,,,0.00,0.00,VWS V14.01,2013-09-27 08:20:00,
2013-09-27 04:25:00,56.4,53.2,30.12,NNW,330,5.0,7.0,89,0.00,,,0.00,0.00,VWS V14.01,2013-09-27 08:25:00,
2013-09-27 04:30:00,56.4,53.2,30.12,NNE,15,2.0,7.0,89,0.00,,,0.00,0.00,VWS V14.01,2013-09-27 08:30:00,
2013-09-27 04:35:00,56.3,53.1,30.12,North,5,5.0,7.0,89,0.00,,,0.00,0.00,VWS V14.01,2013-09-27 08:35:00,
2013-09-27 04:40:00,56.4,53.2,30.12,NNW,344,7.0,8.0,89,0.00,,,0.00,0.00,VWS V14.01,2013-09-27 08:40:00,
2013-09-27 04:45:00,56.5,53.0,30.12,North,350,2.0,8.0,88,0.00,,,0.00,0.00,VWS V14.01,2013-09-27 08:45:00,
2013-09-27 04:50:00,56.5,53.0,30.12,NW,314,3.0,7.0,88,0.00,,,0.00,0.00,VWS V14.01,2013-09-27 08:50:00,
2013-09-27 04:55:00,56.5,53.0,30.12,NW,325,4.0,8.0,88,0.00,,,0.00,0.00,VWS V14.01,2013-09-27 08:55:00,
2013-09-27 05:00:00,56.6,53.1,30.13,NNW,346,1.0,8.0,88,0.00,,,0.00,0.00,VWS V14.01,2013-09-27 09:00:00,
2013-09-27 05:05:00,56.6,53.1,30.12,NW,320,5.0,7.0,88,0.00,,,0.00,0.00,VWS V14.01,2013-09-27 09:05:00,
2013-09-27 05:10:00,56.7,53.2,30.13,NNW,342,3.0,9.0,88,0.00,,,0.00,0.00,VWS V14.01,2013-09-27 09:10:00,
2013-09-27 05:15:00,56.7,52.9,30.13,NW,315,5.0,9.0,87,0.00,,,0.00,0.00,VWS V14.01,2013-09-27 09:15:00,
2013-09-27 05:20:00,56.7,52.9,30.13,NW,317,5.0,8.0,87,0.00,,,0.00,0.00,VWS V14.01,2013-09-27 09:20:00,
2013-09-27 05:25:00,56.7,52.9,30.13,NNW,329,3.0,8.0,87,0.00,,,0.00,0.00,VWS V14.01,2013-09-27 09:25:00,
2013-09-27 05:30:00,56.8,53.0,30.13,NNW,348,5.0,8.0,87,0.00,,,0.00,0.00,VWS V14.01,2013-09-27 09:30:00,
2013-09-27 05:35:00,56.7,52.9,30.13,NNW,327,3.0,7.0,87,0.00,,,0.00,0.00,VWS V14.01,2013-09-27 09:35:00,
2013-09-27 05:40:00,56.8,53.0,30.13,NNW,348,4.0,7.0,87,0.00,,,0.00,0.00,VWS V14.01,2013-09-27 09:40:00,
2013-09-27 05:45:00,56.9,53.1,30.13,North,355,3.0,9.0,87,0.00,,,0.00,0.00,VWS V14.01,2013-09-27 09:45:00,
2013-09-27 05:50:00,56.9,53.1,30.13,NNW,346,5.0,10.0,87,0.00,,,0.00,0.00,VWS V14.01,2013-09-27 09:50:00,
2013-09-27 05:55:00,56.9,53.1,30.14,NNW,342,0.0,10.0,87,0.00,,,0.00,0.00,VWS V14.01,2013-09-27 09:55:00,
2013-09-27 06:00:00,56.9,53.1,30.14,North,5,7.0,10.0,87,0.00,,,0.00,0.00,VWS V14.01,2013-09-27 10:00:00,
2013-09-27 06:05:00,56.9,53.1,30.14,North,355,1.0,7.0,87,0.00,,,0.00,0.00,VWS V14.01,2013-09-27 10:05:00,
2013-09-27 06:10:00,56.9,53.1,30.14,NW,319,2.0,7.0,87,0.00,,,0.00,0.00,VWS V14.01,2013-09-27 10:10:00,
2013-09-27 06:15:00,56.9,53.1,30.14,NW,308,6.0,9.0,87,0.00,,,0.00,0.00,VWS V14.01,2013-09-27 10:15:00,
2013-09-27 06:20:00,56.8,53.0,30.15,NW,326,2.0,7.0,87,0.00,,,0.00,0.00,VWS V14.01,2013-09-27 10:20:00,
2013-09-27 06:25:00,56.8,53.0,30.15,North,5,5.0,8.0,87,0.00,,,0.00,0.00,VWS V14.01,2013-09-27 10:25:00,
2013-09-27 06:30:00,56.8,53.0,30.15,North,355,1.0,8.0,87,0.00,,,0.00,0.00,VWS V14.01,2013-09-27 10:30:00,
2013-09-27 06:35:00,56.8,53.0,30.15,NNW,348,2.0,7.0,87,0.00,,,0.00,0.00,VWS V14.01,2013-09-27 10:35:00,
2013-09-27 06:40:00,56.8,53.0,30.15,NNW,347,3.0,7.0,87,0.00,,,0.00,0.00,VWS V14.01,2013-09-27 10:40:00,
2013-09-27 06:45:00,56.7,52.9,30.15,NNW,338,1.0,9.0,87,0.00,,,0.00,0.00,VWS V14.01,2013-09-27 10:45:00,
2013-09-27 06:50:00,56.7,53.2,30.15,NW,321,5.0,9.0,88,0.00,,,0.00,7.00,VWS V14.01,2013-09-27 10:50:00,
2013-09-27 06:55:00,56.7,53.2,30.15,NNE,15,5.0,9.0,88,0.00,,,0.00,9.00,VWS V14.01,2013-09-27 10:55:00,
2013-09-27 07:00:00,56.7,53.2,30.16,NW,324,2.0,9.0,88,0.00,,,0.00,11.00,VWS V14.01,2013-09-27 11:00:00,
2013-09-27 07:05:00,56.7,53.2,30.16,NW,318,3.0,9.0,88,0.00,,,0.00,12.00,VWS V14.01,2013-09-27 11:05:00,
2013-09-27 07:10:00,56.8,53.3,30.16,NW,312,3.0,9.0,88,0.00,,,0.00,16.00,VWS V14.01,2013-09-27 11:10:00,
2013-09-27 07:15:00,56.8,53.3,30.16,NNW,327,4.0,9.0,88,0.00,,,0.00,19.00,VWS V14.01,2013-09-27 11:15:00,
2013-09-27 07:20:00,56.8,53.3,30.16,NNW,332,2.0,7.0,88,0.00,,,0.00,23.00,VWS V14.01,2013-09-27 11:20:00,
2013-09-27 07:25:00,56.8,53.0,30.16,NW,325,6.0,8.0,87,0.00,,,0.00,26.00,VWS V14.01,2013-09-27 11:25:00,
2013-09-27 07:30:00,56.8,53.0,30.16,NW,313,2.0,8.0,87,0.00,,,0.00,28.00,VWS V14.01,2013-09-27 11:30:00,
2013-09-27 07:35:00,56.8,53.0,30.16,NNW,347,1.0,8.0,87,0.00,,,0.00,30.00,VWS V14.01,2013-09-27 11:35:00,
2013-09-27 07:40:00,56.8,53.0,30.17,NW,320,6.0,8.0,87,0.00,,,0.00,37.00,VWS V14.01,2013-09-27 11:40:00,
2013-09-27 07:45:00,56.9,53.1,30.17,NNW,327,2.0,8.0,87,0.00,,,0.00,44.00,VWS V14.01,2013-09-27 11:45:00,
2013-09-27 07:50:00,56.9,53.1,30.17,NW,313,2.0,9.0,87,0.00,,,0.00,46.00,VWS V14.01,2013-09-27 11:50:00,
2013-09-27 07:56:00,56.9,53.1,30.17,NW,321,5.0,9.0,87,0.00,,,0.00,51.00,VWS V14.01,2013-09-27 11:56:00,
2013-09-27 08:01:00,57.0,53.2,30.17,NW,320,5.0,9.0,87,0.00,,,0.00,49.00,VWS V14.01,2013-09-27 12:01:00,
2013-09-27 08:06:00,57.1,53.3,30.17,NW,317,4.0,7.0,87,0.00,,,0.00,54.00,VWS V14.01,2013-09-27 12:06:00,
2013-09-27 08:11:00,57.1,53.3,30.17,NNW,340,6.0,7.0,87,0.00,,,0.00,54.00,VWS V14.01,2013-09-27 12:11:00,
2013-09-27 08:16:00,57.2,53.4,30.18,NNW,329,5.0,7.0,87,0.00,,,0.00,60.00,VWS V14.01,2013-09-27 12:16:00,
2013-09-27 08:21:00,57.2,53.1,30.18,NNW,341,4.0,7.0,86,0.00,,,0.00,67.00,VWS V14.01,2013-09-27 12:21:00,
2013-09-27 08:26:00,57.3,53.2,30.18,NW,315,5.0,8.0,86,0.00,,,0.00,70.00,VWS V14.01,2013-09-27 12:26:00,
2013-09-27 08:30:00,56.8,53.0,30.16,NW,319,8.0,8.0,87,0.00,,,0.00,28.00,VWS V14.01,2013-09-27 12:30:00,
2013-09-27 08:31:00,57.3,53.2,30.18,NNW,346,6.0,8.0,86,0.00,,,0.00,79.00,VWS V14.01,2013-09-27 12:31:00,
2013-09-27 08:36:00,57.4,53.2,30.18,NNW,338,5.0,8.0,86,0.00,,,0.00,83.00,VWS V14.01,2013-09-27 12:36:00,
2013-09-27 08:41:00,57.5,53.3,30.19,NW,318,4.0,8.0,86,0.00,,,0.00,90.00,VWS V14.01,2013-09-27 12:41:00,
2013-09-27 08:45:00,56.8,53.0,30.17,NW,318,4.0,8.0,87,0.00,,,0.00,44.00,VWS V14.01,2013-09-27 12:45:00,
2013-09-27 08:46:00,57.6,53.5,30.19,NW,323,6.0,6.0,86,0.00,,,0.00,98.00,VWS V14.01,2013-09-27 12:46:00,
2013-09-27 08:51:00,57.7,53.5,30.19,NNW,340,2.0,7.0,86,0.00,,,0.00,107.00,VWS V14.01,2013-09-27 12:51:00,
2013-09-27 08:56:00,57.8,53.7,30.19,NNW,344,5.0,8.0,86,0.00,,,0.00,120.00,VWS V14.01,2013-09-27 12:56:00,
2013-09-27 09:00:00,57.0,53.2,30.17,NNW,348,5.0,9.0,87,0.00,,,0.00,49.00,VWS V14.01,2013-09-27 13:00:00,
2013-09-27 09:01:00,57.8,53.7,30.19,NW,324,5.0,12.0,86,0.00,,,0.00,137.00,VWS V14.01,2013-09-27 13:01:00,
2013-09-27 09:06:00,57.9,53.7,30.19,NW,321,1.0,8.0,86,0.00,,,0.00,149.00,VWS V14.01,2013-09-27 13:06:00,
2013-09-27 09:11:00,58.1,53.9,30.19,NNW,331,2.0,8.0,86,0.00,,,0.00,178.00,VWS V14.01,2013-09-27 13:11:00,
2013-09-27 09:15:00,57.2,53.4,30.18,NNW,329,5.0,7.0,87,0.00,,,0.00,60.00,VWS V14.01,2013-09-27 13:15:00,
2013-09-27 09:16:00,58.4,53.9,30.19,NW,317,4.0,4.0,85,0.00,,,0.00,181.00,VWS V14.01,2013-09-27 13:16:00,
2013-09-27 09:21:00,58.5,54.0,30.19,North,355,3.0,7.0,85,0.00,,,0.00,206.00,VWS V14.01,2013-09-27 13:21:00,
2013-09-27 09:26:00,58.8,54.3,30.19,NNW,340,1.0,7.0,85,0.00,,,0.00,232.00,VWS V14.01,2013-09-27 13:26:00,
2013-09-27 09:31:00,59.0,54.2,30.19,NNW,348,2.0,2.0,84,0.00,,,0.00,262.00,VWS V14.01,2013-09-27 13:31:00,
2013-09-27 09:36:00,59.1,54.3,30.19,North,349,2.0,9.0,84,0.00,,,0.00,287.00,VWS V14.01,2013-09-27 13:36:00,
2013-09-27 09:41:00,59.3,54.5,30.19,NNW,347,7.0,9.0,84,0.00,,,0.00,265.00,VWS V14.01,2013-09-27 13:41:00,
2013-09-27 09:46:00,59.5,54.3,30.20,NNW,336,3.0,4.0,83,0.00,,,0.00,146.00,VWS V14.01,2013-09-27 13:46:00,
2013-09-27 09:51:00,59.4,54.2,30.20,NNW,348,4.0,10.0,83,0.00,,,0.00,188.00,VWS V14.01,2013-09-27 13:51:00,
2013-09-27 09:56:00,59.4,54.2,30.20,North,5,1.0,10.0,83,0.00,,,0.00,148.00,VWS V14.01,2013-09-27 13:56:00,
2013-09-27 10:00:00,57.8,53.7,30.19,NW,324,5.0,12.0,86,0.00,,,0.00,137.00,VWS V14.01,2013-09-27 14:00:00,
2013-09-27 10:01:00,59.4,54.2,30.20,NNW,333,7.0,8.0,83,0.00,,,0.00,192.00,VWS V14.01,2013-09-27 14:01:00,
2013-09-27 10:06:00,59.6,54.8,30.20,NNW,337,0.0,8.0,84,0.00,,,0.00,267.00,VWS V14.01,2013-09-27 14:06:00,
2013-09-27 10:11:00,59.8,54.6,30.20,NNE,27,6.0,10.0,83,0.00,,,0.00,281.00,VWS V14.01,2013-09-27 14:11:00,
2013-09-27 10:15:00,58.3,53.8,30.19,NW,321,2.0,8.0,85,0.00,,,0.00,181.00,VWS V14.01,2013-09-27 14:15:00,
2013-09-27 10:16:00,60.1,54.9,30.20,NNW,330,3.0,3.0,83,0.00,,,0.00,236.00,VWS V14.01,2013-09-27 14:16:00,
2013-09-27 10:21:00,60.2,54.7,30.20,NNE,19,8.0,11.0,82,0.00,,,0.00,290.00,VWS V14.01,2013-09-27 14:21:00,
2013-09-27 10:26:00,60.2,54.7,30.20,NNW,346,2.0,13.0,82,0.00,,,0.00,323.00,VWS V14.01,2013-09-27 14:26:00,
2013-09-27 10:30:00,59.0,54.2,30.19,North,11,1.0,8.0,84,0.00,,,0.00,262.00,VWS V14.01,2013-09-27 14:30:00,
2013-09-27 10:31:00,60.3,54.5,30.20,NNE,15,11.0,11.0,81,0.00,,,0.00,269.00,VWS V14.01,2013-09-27 14:31:00,
2013-09-27 10:36:00,60.3,54.1,30.20,NNW,334,5.0,15.0,80,0.00,,,0.00,271.00,VWS V14.01,2013-09-27 14:36:00,
2013-09-27 10:41:00,60.5,54.3,30.20,NNE,13,7.0,15.0,80,0.00,,,0.00,415.00,VWS V14.01,2013-09-27 14:41:00,
2013-09-27 10:45:00,59.5,54.3,30.19,NNW,329,4.0,9.0,83,0.00,,,0.00,146.00,VWS V14.01,2013-09-27 14:45:00,
2013-09-27 10:46:00,60.9,54.3,30.20,North,355,4.0,9.0,79,0.00,,,0.00,369.00,VWS V14.01,2013-09-27 14:46:00,
2013-09-27 10:51:00,61.0,54.8,30.20,NNW,335,10.0,13.0,80,0.00,,,0.00,295.00,VWS V14.01,2013-09-27 14:51:00,
2013-09-27 10:56:00,61.1,54.9,30.20,NNE,21,7.0,13.0,80,0.00,,,0.00,318.00,VWS V14.01,2013-09-27 14:56:00,
2013-09-27 11:00:00,59.5,54.3,30.20,NNW,347,4.0,10.0,83,0.00,,,0.00,199.00,VWS V14.01,2013-09-27 15:00:00,
2013-09-27 11:01:00,61.2,54.6,30.19,NNW,328,4.0,6.0,79,0.00,,,0.00,441.00,VWS V14.01,2013-09-27 15:01:00,
2013-09-27 11:06:00,61.7,54.8,30.19,NNE,18,12.0,12.0,78,0.00,,,0.00,475.00,VWS V14.01,2013-09-27 15:06:00,
2013-09-27 11:11:00,61.6,54.3,30.19,NNE,32,8.0,12.0,77,0.00,,,0.00,501.00,VWS V14.01,2013-09-27 15:11:00,
2013-09-27 11:15:00,60.1,54.9,30.20,North,5,3.0,10.0,83,0.00,,,0.00,218.00,VWS V14.01,2013-09-27 15:15:00,
2013-09-27 11:16:00,61.9,54.6,30.19,NNE,15,3.0,7.0,77,0.00,,,0.00,383.00,VWS V14.01,2013-09-27 15:16:00,
2013-09-27 11:21:00,62.0,54.7,30.20,NNE,24,11.0,15.0,77,0.00,,,0.00,471.00,VWS V14.01,2013-09-27 15:21:00,
2013-09-27 11:26:00,62.0,54.7,30.19,NNW,343,4.0,15.0,77,0.00,,,0.00,710.00,VWS V14.01,2013-09-27 15:26:00,
2013-09-27 11:30:00,60.3,54.5,30.20,NNE,13,11.0,13.0,81,0.00,,,0.00,271.00,VWS V14.01,2013-09-27 15:30:00,
2013-09-27 11:31:00,62.1,54.8,30.20,North,10,4.0,7.0,77,0.00,,,0.00,411.00,VWS V14.01,2013-09-27 15:31:00,
2013-09-27 11:36:00,62.3,54.3,30.20,North,355,6.0,11.0,75,0.00,,,0.00,309.00,VWS V14.01,2013-09-27 15:36:00,
2013-09-27 11:41:00,62.2,54.5,30.19,NNE,13,4.0,11.0,76,0.00,,,0.00,301.00,VWS V14.01,2013-09-27 15:41:00,
2013-09-27 11:45:00,60.8,54.3,30.20,North,9,9.0,15.0,79,0.00,,,0.00,369.00,VWS V14.01,2013-09-27 15:45:00,
2013-09-27 11:46:00,62.2,54.5,30.19,NNE,31,8.0,8.0,76,0.00,,,0.00,287.00,VWS V14.01,2013-09-27 15:46:00,
2013-09-27 11:51:00,62.2,54.5,30.19,NE,35,7.0,12.0,76,0.00,,,0.00,316.00,VWS V14.01,2013-09-27 15:51:00,
2013-09-27 11:56:00,62.4,54.8,30.19,NNE,20,9.0,12.0,76,0.00,,,0.00,443.00,VWS V14.01,2013-09-27 15:56:00,
2013-09-27 12:00:00,61.2,54.6,30.19,North,355,6.0,13.0,79,0.00,,,0.00,441.00,VWS V14.01,2013-09-27 16:00:00,
2013-09-27 12:01:00,62.6,54.9,30.19,NNE,31,6.0,9.0,76,0.00,,,0.00,348.00,VWS V14.01,2013-09-27 16:01:00,
2013-09-27 12:06:00,62.4,54.4,30.19,NE,51,3.0,15.0,75,0.00,,,0.00,353.00,VWS V14.01,2013-09-27 16:06:00,
2013-09-27 12:11:00,62.5,55.2,30.20,NE,50,7.0,15.0,77,0.00,,,0.00,360.00,VWS V14.01,2013-09-27 16:11:00,
2013-09-27 12:15:00,61.9,54.6,30.19,NNE,24,6.0,13.0,77,0.00,,,0.00,420.00,VWS V14.01,2013-09-27 16:15:00,
2013-09-27 12:16:00,62.6,54.9,30.20,NE,37,8.0,8.0,76,0.00,,,0.00,197.00,VWS V14.01,2013-09-27 16:16:00,
2013-09-27 12:21:00,62.4,54.8,30.20,North,360,4.0,12.0,76,0.00,,,0.00,294.00,VWS V14.01,2013-09-27 16:21:00,
2013-09-27 12:26:00,62.1,54.5,30.20,NE,37,7.0,17.0,76,0.00,,,0.00,334.00,VWS V14.01,2013-09-27 16:26:00,
2013-09-27 12:30:00,62.1,54.5,30.20,NNE,32,7.0,15.0,76,0.00,,,0.00,394.00,VWS V14.01,2013-09-27 16:30:00,
2013-09-27 12:31:00,62.0,54.4,30.20,NNE,33,10.0,10.0,76,0.00,,,0.00,341.00,VWS V14.01,2013-09-27 16:31:00,
2013-09-27 12:36:00,61.8,54.2,30.20,North,354,6.0,19.0,76,0.00,,,0.00,334.00,VWS V14.01,2013-09-27 16:36:00,
2013-09-27 12:41:00,61.7,54.4,30.20,ENE,64,4.0,19.0,77,0.00,,,0.00,856.00,VWS V14.01,2013-09-27 16:41:00,
2013-09-27 12:45:00,62.2,54.5,30.20,North,5,4.0,11.0,76,0.00,,,0.00,285.00,VWS V14.01,2013-09-27 16:45:00,
2013-09-27 12:46:00,62.4,54.4,30.20,NNE,16,7.0,13.0,75,0.00,,,0.00,735.00,VWS V14.01,2013-09-27 16:46:00,
2013-09-27 12:51:00,62.8,54.4,30.20,NNE,16,9.0,15.0,74,0.00,,,0.00,257.00,VWS V14.01,2013-09-27 16:51:00,
2013-09-27 12:56:00,63.2,54.8,30.19,North,360,11.0,18.0,74,0.00,,,0.00,911.00,VWS V14.01,2013-09-27 16:56:00,
2013-09-27 13:00:00,62.6,54.9,30.19,NE,37,9.0,12.0,76,0.00,,,0.00,343.00,VWS V14.01,2013-09-27 17:00:00,
2013-09-27 13:01:00,63.4,54.2,30.19,NNE,31,13.0,16.0,72,0.00,,,0.00,888.00,VWS V14.01,2013-09-27 17:01:00,
2013-09-27 13:06:00,63.1,53.6,30.19,NNE,25,19.0,19.0,71,0.00,,,0.00,998.00,VWS V14.01,2013-09-27 17:06:00,
2013-09-27 13:11:00,62.7,53.5,30.19,North,5,10.0,21.0,72,0.00,,,0.00,214.00,VWS V14.01,2013-09-27 17:11:00,
2013-09-27 13:15:00,62.6,54.9,30.20,NNE,31,5.0,15.0,76,0.00,,,0.00,221.00,VWS V14.01,2013-09-27 17:15:00,
2013-09-27 13:16:00,62.6,54.2,30.19,North,5,10.0,12.0,74,0.00,,,0.00,886.00,VWS V14.01,2013-09-27 17:16:00,
2013-09-27 13:21:00,63.0,54.2,30.19,NE,39,11.0,16.0,73,0.00,,,0.00,865.00,VWS V14.01,2013-09-27 17:21:00,
2013-09-27 13:26:00,63.1,53.9,30.19,NE,39,8.0,17.0,72,0.00,,,0.00,373.00,VWS V14.01,2013-09-27 17:26:00,
2013-09-27 13:30:00,62.0,54.4,30.20,NE,34,6.0,19.0,76,0.00,,,0.00,341.00,VWS V14.01,2013-09-27 17:30:00,
2013-09-27 13:31:00,62.9,54.1,30.19,East,81,8.0,17.0,73,0.00,,,0.00,264.00,VWS V14.01,2013-09-27 17:31:00,
2013-09-27 13:36:00,62.4,54.0,30.19,NNE,16,11.0,16.0,74,0.00,,,0.00,262.00,VWS V14.01,2013-09-27 17:36:00,
2013-09-27 13:41:00,62.2,53.5,30.19,NNE,24,13.0,20.0,73,0.00,,,0.00,269.00,VWS V14.01,2013-09-27 17:41:00,
2013-09-27 13:45:00,62.0,54.7,30.20,NE,56,12.0,19.0,77,0.00,,,0.00,735.00,VWS V14.01,2013-09-27 17:45:00,
2013-09-27 13:46:00,62.3,53.5,30.19,NNE,14,8.0,20.0,73,0.00,,,0.00,269.00,VWS V14.01,2013-09-27 17:46:00,
2013-09-27 13:51:00,62.6,53.8,30.19,NNW,334,11.0,19.0,73,0.00,,,0.00,362.00,VWS V14.01,2013-09-27 17:51:00,
2013-09-27 13:56:00,62.4,54.0,30.19,North,360,8.0,19.0,74,0.00,,,0.00,258.00,VWS V14.01,2013-09-27 17:56:00,
2013-09-27 14:00:00,63.5,54.7,30.20,North,351,10.0,18.0,73,0.00,,,0.00,854.00,VWS V14.01,2013-09-27 18:00:00,
2013-09-27 14:01:00,61.9,53.9,30.19,NNE,28,10.0,10.0,75,0.00,,,0.00,183.00,VWS V14.01,2013-09-27 18:01:00,
2013-09-27 14:06:00,62.0,54.0,30.18,NNE,27,9.0,16.0,75,0.00,,,0.00,213.00,VWS V14.01,2013-09-27 18:06:00,
2013-09-27 14:11:00,61.8,53.4,30.19,North,353,10.0,16.0,74,0.00,,,0.00,113.00,VWS V14.01,2013-09-27 18:11:00,
2013-09-27 14:15:00,62.5,54.1,30.19,NE,40,7.0,21.0,74,0.00,,,0.00,905.00,VWS V14.01,2013-09-27 18:15:00,
2013-09-27 14:16:00,62.2,53.5,30.18,NNE,29,10.0,10.0,73,0.00,,,0.00,290.00,VWS V14.01,2013-09-27 18:16:00,
2013-09-27 14:21:00,62.1,53.7,30.18,NE,53,10.0,16.0,74,0.00,,,0.00,214.00,VWS V14.01,2013-09-27 18:21:00,
2013-09-27 14:26:00,61.9,53.5,30.18,NE,37,6.0,16.0,74,0.00,,,0.00,165.00,VWS V14.01,2013-09-27 18:26:00,
2013-09-27 14:30:00,62.9,54.1,30.19,East,81,8.0,17.0,73,0.00,,,0.00,264.00,VWS V14.01,2013-09-27 18:30:00,
2013-09-27 14:31:00,62.5,54.1,30.18,North,360,7.0,9.0,74,0.00,,,0.00,828.00,VWS V14.01,2013-09-27 18:31:00,
2013-09-27 14:36:00,63.2,54.0,30.18,North,360,8.0,14.0,72,0.00,,,0.00,221.00,VWS V14.01,2013-09-27 18:36:00,
2013-09-27 14:41:00,62.6,53.8,30.18,NE,39,7.0,14.0,73,0.00,,,0.00,218.00,VWS V14.01,2013-09-27 18:41:00,
2013-09-27 14:45:00,62.4,53.6,30.19,NNW,338,6.0,20.0,73,0.00,,,0.00,269.00,VWS V14.01,2013-09-27 18:45:00,
2013-09-27 14:46:00,62.6,54.2,30.18,NE,54,5.0,8.0,74,0.00,,,0.00,292.00,VWS V14.01,2013-09-27 18:46:00,
2013-09-27 14:51:00,62.8,54.4,30.17,NNE,26,5.0,15.0,74,0.00,,,0.00,802.00,VWS V14.01,2013-09-27 18:51:00,
2013-09-27 14:56:00,62.5,53.7,30.17,NE,49,8.0,18.0,73,0.00,,,0.00,158.00,VWS V14.01,2013-09-27 18:56:00,
2013-09-27 15:00:00,61.9,53.9,30.19,North,10,8.0,19.0,75,0.00,,,0.00,183.00,VWS V14.01,2013-09-27 19:00:00,
2013-09-27 15:01:00,62.1,53.3,30.17,NE,42,5.0,12.0,73,0.00,,,0.00,160.00,VWS V14.01,2013-09-27 19:01:00,
2013-09-27 15:06:00,62.4,54.0,30.17,NE,36,10.0,17.0,74,0.00,,,0.00,698.00,VWS V14.01,2013-09-27 19:06:00,
2013-09-27 15:11:00,62.3,53.9,30.17,NE,44,11.0,17.0,74,0.00,,,0.00,587.00,VWS V14.01,2013-09-27 19:11:00,
2013-09-27 15:15:00,62.2,53.5,30.18,NE,38,6.0,17.0,73,0.00,,,0.00,290.00,VWS V14.01,2013-09-27 19:15:00,
2013-09-27 15:16:00,62.7,54.3,30.17,NE,45,6.0,13.0,74,0.00,,,0.00,640.00,VWS V14.01,2013-09-27 19:16:00,
2013-09-27 15:21:00,62.9,54.1,30.17,NNE,22,12.0,19.0,73,0.00,,,0.00,200.00,VWS V14.01,2013-09-27 19:21:00,
2013-09-27 15:26:00,62.6,53.8,30.17,NE,47,11.0,19.0,73,0.00,,,0.00,571.00,VWS V14.01,2013-09-27 19:26:00,
2013-09-27 15:30:00,62.5,54.1,30.18,NE,46,8.0,16.0,74,0.00,,,0.00,828.00,VWS V14.01,2013-09-27 19:30:00,
2013-09-27 15:31:00,62.2,53.5,30.17,NNE,22,10.0,13.0,73,0.00,,,0.00,98.00,VWS V14.01,2013-09-27 19:31:00,
2013-09-27 15:36:00,62.0,54.0,30.17,NNE,19,6.0,14.0,75,0.00,,,0.00,81.00,VWS V14.01,2013-09-27 19:36:00,
2013-09-27 15:41:00,62.3,53.9,30.17,NNE,33,9.0,18.0,74,0.00,,,0.00,499.00,VWS V14.01,2013-09-27 19:41:00,
2013-09-27 15:45:00,62.6,54.2,30.18,NE,37,8.0,14.0,74,0.00,,,0.00,292.00,VWS V14.01,2013-09-27 19:45:00,
2013-09-27 15:46:00,62.5,54.1,30.17,NE,36,8.0,11.0,74,0.00,,,0.00,499.00,VWS V14.01,2013-09-27 19:46:00,
2013-09-27 15:51:00,62.4,53.6,30.17,NNE,21,10.0,16.0,73,0.00,,,0.00,513.00,VWS V14.01,2013-09-27 19:51:00,
2013-09-27 15:56:00,62.1,53.3,30.17,NNE,20,8.0,17.0,73,0.00,,,0.00,513.00,VWS V14.01,2013-09-27 19:56:00,
2013-09-27 16:00:00,62.1,53.7,30.17,NNE,29,12.0,18.0,74,0.00,,,0.00,160.00,VWS V14.01,2013-09-27 20:00:00,
2013-09-27 16:01:00,61.8,53.4,30.17,NE,34,10.0,10.0,74,0.00,,,0.00,86.00,VWS V14.01,2013-09-27 20:01:00,
2013-09-27 16:06:00,62.0,52.9,30.17,NE,48,13.0,17.0,72,0.00,,,0.00,427.00,VWS V14.01,2013-09-27 20:06:00,
2013-09-27 16:11:00,61.9,52.8,30.18,NNE,22,8.0,17.0,72,0.00,,,0.00,322.00,VWS V14.01,2013-09-27 20:11:00,
2013-09-27 16:15:00,62.7,54.3,30.17,NE,48,11.0,17.0,74,0.00,,,0.00,613.00,VWS V14.01,2013-09-27 20:15:00,
2013-09-27 16:16:00,62.0,53.6,30.18,North,10,13.0,13.0,74,0.00,,,0.00,401.00,VWS V14.01,2013-09-27 20:16:00,
2013-09-27 16:21:00,62.0,52.5,30.18,NE,41,10.0,14.0,71,0.00,,,0.00,380.00,VWS V14.01,2013-09-27 20:21:00,
2013-09-27 16:26:00,62.2,52.7,30.18,NNE,29,9.0,14.0,71,0.00,,,0.00,355.00,VWS V14.01,2013-09-27 20:26:00,
2013-09-27 16:30:00,62.3,53.5,30.17,North,355,13.0,19.0,73,0.00,,,0.00,137.00,VWS V14.01,2013-09-27 20:30:00,
2013-09-27 16:31:00,62.2,52.3,30.18,NNE,26,9.0,15.0,70,0.00,,,0.00,353.00,VWS V14.01,2013-09-27 20:31:00,
2013-09-27 16:36:00,62.1,52.6,30.18,NNE,18,7.0,15.0,71,0.00,,,0.00,323.00,VWS V14.01,2013-09-27 20:36:00,
2013-09-27 16:41:00,62.0,52.5,30.18,North,360,7.0,17.0,71,0.00,,,0.00,306.00,VWS V14.01,2013-09-27 20:41:00,
2013-09-27 16:45:00,62.5,54.1,30.17,NE,38,7.0,18.0,74,0.00,,,0.00,497.00,VWS V14.01,2013-09-27 20:45:00,
2013-09-27 16:46:00,62.0,52.5,30.18,North,360,5.0,14.0,71,0.00,,,0.00,290.00,VWS V14.01,2013-09-27 20:46:00,
2013-09-27 16:51:00,61.8,52.7,30.18,NE,52,8.0,14.0,72,0.00,,,0.00,272.00,VWS V14.01,2013-09-27 20:51:00,
2013-09-27 16:56:00,61.9,52.8,30.19,North,5,7.0,14.0,72,0.00,,,0.00,243.00,VWS V14.01,2013-09-27 20:56:00,
2013-09-27 17:00:00,61.8,53.4,30.17,ENE,60,7.0,17.0,74,0.00,,,0.00,86.00,VWS V14.01,2013-09-27 21:00:00,
2013-09-27 17:01:00,61.8,52.3,30.19,NNE,14,12.0,13.0,71,0.00,,,0.00,214.00,VWS V14.01,2013-09-27 21:01:00,
2013-09-27 17:06:00,61.8,52.3,30.19,NNE,22,12.0,13.0,71,0.00,,,0.00,190.00,VWS V14.01,2013-09-27 21:06:00,
2013-09-27 17:11:00,61.7,51.8,30.19,NE,41,7.0,14.0,70,0.00,,,0.00,172.00,VWS V14.01,2013-09-27 21:11:00,
2013-09-27 17:15:00,61.9,53.2,30.18,ENE,71,7.0,17.0,73,0.00,,,0.00,401.00,VWS V14.01,2013-09-27 21:15:00,
2013-09-27 17:16:00,61.5,51.6,30.19,NNE,17,11.0,11.0,70,0.00,,,0.00,156.00,VWS V14.01,2013-09-27 21:16:00,
2013-09-27 17:21:00,61.4,51.2,30.19,North,10,6.0,12.0,69,0.00,,,0.00,130.00,VWS V14.01,2013-09-27 21:21:00,
2013-09-27 17:26:00,61.4,51.2,30.19,NNE,20,6.0,12.0,69,0.00,,,0.00,111.00,VWS V14.01,2013-09-27 21:26:00,
2013-09-27 17:30:00,62.3,52.8,30.18,NNE,28,14.0,14.0,71,0.00,,,0.00,355.00,VWS V14.01,2013-09-27 21:30:00,
2013-09-27 17:32:00,61.4,51.5,30.19,North,5,9.0,9.0,70,0.00,,,0.00,100.00,VWS V14.01,2013-09-27 21:32:00,
2013-09-27 17:37:00,61.3,51.8,30.19,North,10,9.0,10.0,71,0.00,,,0.00,95.00,VWS V14.01,2013-09-27 21:37:00,
2013-09-27 17:42:00,61.1,51.6,30.19,NE,47,10.0,10.0,71,0.00,,,0.00,84.00,VWS V14.01,2013-09-27 21:42:00,
2013-09-27 17:45:00,62.0,52.5,30.18,NE,34,7.0,17.0,71,0.00,,,0.00,292.00,VWS V14.01,2013-09-27 21:45:00,
2013-09-27 17:47:00,61.1,52.0,30.19,NNE,16,7.0,8.0,72,0.00,,,0.00,62.00,VWS V14.01,2013-09-27 21:47:00,
2013-09-27 17:52:00,60.9,51.8,30.20,North,356,2.0,10.0,72,0.00,,,0.00,30.00,VWS V14.01,2013-09-27 21:52:00,
2013-09-27 17:57:00,60.8,51.7,30.20,NNE,27,10.0,11.0,72,0.00,,,0.00,21.00,VWS V14.01,2013-09-27 21:57:00,
2013-09-27 18:00:00,61.8,52.3,30.19,NE,39,4.0,14.0,71,0.00,,,0.00,218.00,VWS V14.01,2013-09-27 22:00:00,
2013-09-27 18:02:00,60.6,51.9,30.20,NNE,21,4.0,7.0,73,0.00,,,0.00,19.00,VWS V14.01,2013-09-27 22:02:00,
2013-09-27 18:07:00,60.4,51.7,30.19,NE,37,1.0,9.0,73,0.00,,,0.00,18.00,VWS V14.01,2013-09-27 22:07:00,
2013-09-27 18:12:00,60.2,51.5,30.19,North,5,7.0,9.0,73,0.00,,,0.00,16.00,VWS V14.01,2013-09-27 22:12:00,
2013-09-27 18:15:00,61.5,51.2,30.19,ENE,65,7.0,14.0,69,0.00,,,0.00,160.00,VWS V14.01,2013-09-27 22:15:00,
2013-09-27 18:17:00,59.9,51.6,30.19,NNW,329,5.0,8.0,74,0.00,,,0.00,12.00,VWS V14.01,2013-09-27 22:17:00,
2013-09-27 18:22:00,59.8,51.5,30.19,NNE,14,4.0,10.0,74,0.00,,,0.00,11.00,VWS V14.01,2013-09-27 22:22:00,
2013-09-27 18:27:00,59.5,51.2,30.19,North,349,7.0,10.0,74,0.00,,,0.00,7.00,VWS V14.01,2013-09-27 22:27:00,
2013-09-27 18:30:00,61.4,51.5,30.19,NNE,20,4.0,12.0,70,0.00,,,0.00,102.00,VWS V14.01,2013-09-27 22:30:00,
2013-09-27 18:32:00,59.4,51.5,30.20,NNW,341,7.0,7.0,75,0.00,,,0.00,5.00,VWS V14.01,2013-09-27 22:32:00,
2013-09-27 18:37:00,59.2,51.7,30.20,North,10,3.0,7.0,76,0.00,,,0.00,0.00,VWS V14.01,2013-09-27 22:37:00,
2013-09-27 18:42:00,59.0,51.5,30.20,NNE,20,8.0,9.0,76,0.00,,,0.00,0.00,VWS V14.01,2013-09-27 22:42:00,
2013-09-27 18:45:00,61.1,51.6,30.19,NNE,17,6.0,10.0,71,0.00,,,0.00,65.00,VWS V14.01,2013-09-27 22:45:00,
2013-09-27 18:47:00,59.1,51.5,30.20,NE,40,8.0,12.0,76,0.00,,,0.00,0.00,VWS V14.01,2013-09-27 22:47:00,
2013-09-27 18:52:00,59.0,51.8,30.20,NNE,31,1.0,12.0,77,0.00,,,0.00,0.00,VWS V14.01,2013-09-27 22:52:00,
2013-09-27 18:57:00,58.7,51.5,30.20,North,360,1.0,12.0,77,0.00,,,0.00,0.00,VWS V14.01,2013-09-27 22:57:00,
2013-09-27 19:00:00,60.6,51.9,30.20,NNW,347,7.0,11.0,73,0.00,,,0.00,19.00,VWS V14.01,2013-09-27 23:00:00,
2013-09-27 19:02:00,58.5,51.7,30.20,North,360,3.0,7.0,78,0.00,,,0.00,0.00,VWS V14.01,2013-09-27 23:02:00,
2013-09-27 19:07:00,58.4,51.9,30.20,NNE,33,3.0,7.0,79,0.00,,,0.00,0.00,VWS V14.01,2013-09-27 23:07:00,
2013-09-27 19:12:00,58.2,51.7,30.21,NNE,18,4.0,7.0,79,0.00,,,0.00,0.00,VWS V14.01,2013-09-27 23:12:00,
2013-09-27 19:15:00,60.0,51.3,30.19,NE,43,5.0,10.0,73,0.00,,,0.00,12.00,VWS V14.01,2013-09-27 23:15:00,
2013-09-27 19:17:00,58.1,51.6,30.21,North,360,3.0,6.0,79,0.00,,,0.00,0.00,VWS V14.01,2013-09-27 23:17:00,
2013-09-27 19:22:00,58.0,51.9,30.21,North,10,5.0,6.0,80,0.00,,,0.00,0.00,VWS V14.01,2013-09-27 23:22:00,
2013-09-27 19:27:00,58.0,51.9,30.21,NNE,17,2.0,6.0,80,0.00,,,0.00,0.00,VWS V14.01,2013-09-27 23:27:00,
2013-09-27 19:30:00,59.4,51.5,30.20,NNE,23,5.0,11.0,75,0.00,,,0.00,5.00,VWS V14.01,2013-09-27 23:30:00,
2013-09-27 19:32:00,57.9,51.8,30.21,North,5,4.0,8.0,80,0.00,,,0.00,0.00,VWS V14.01,2013-09-27 23:32:00,
2013-09-27 19:37:00,57.9,51.8,30.21,North,355,2.0,8.0,80,0.00,,,0.00,0.00,VWS V14.01,2013-09-27 23:37:00,
2013-09-27 19:42:00,57.7,51.6,30.21,North,349,1.0,8.0,80,0.00,,,0.00,0.00,VWS V14.01,2013-09-27 23:42:00,
2013-09-27 19:45:00,59.0,51.5,30.20,North,360,8.0,13.0,76,0.00,,,0.00,0.00,VWS V14.01,2013-09-27 23:45:00,
2013-09-27 19:47:00,57.4,51.6,30.21,NNW,343,3.0,4.0,81,0.00,,,0.00,0.00,VWS V14.01,2013-09-27 23:47:00,
2013-09-27 19:52:00,57.2,51.8,30.22,NNW,338,2.0,4.0,82,0.00,,,0.00,0.00,VWS V14.01,2013-09-27 23:52:00,
2013-09-27 19:57:00,57.0,51.6,30.22,NNW,335,1.0,4.0,82,0.00,,,0.00,0.00,VWS V14.01,2013-09-27 23:57:00,
2013-09-27 20:00:00,58.5,51.7,30.20,North,349,4.0,12.0,78,0.00,,,0.00,0.00,VWS V14.01,2013-09-28 00:00:00,
2013-09-27 20:02:00,56.8,51.7,30.22,NNW,345,2.0,3.0,83,0.00,,,0.00,0.00,VWS V14.01,2013-09-28 00:02:00,
2013-09-27 20:07:00,56.6,51.5,30.22,North,350,3.0,4.0,83,0.00,,,0.00,0.00,VWS V14.01,2013-09-28 00:07:00,
2013-09-27 20:12:00,56.4,51.6,30.22,North,10,2.0,4.0,84,0.00,,,0.00,0.00,VWS V14.01,2013-09-28 00:12:00,
2013-09-27 20:15:00,58.1,51.6,30.21,North,5,4.0,7.0,79,0.00,,,0.00,0.00,VWS V14.01,2013-09-28 00:15:00,
2013-09-27 20:17:00,56.3,51.5,30.22,North,354,2.0,2.0,84,0.00,,,0.00,0.00,VWS V14.01,2013-09-28 00:17:00,
2013-09-27 20:22:00,56.2,51.8,30.22,North,354,3.0,4.0,85,0.00,,,0.00,0.00,VWS V14.01,2013-09-28 00:22:00,
2013-09-27 20:27:00,56.2,51.8,30.22,North,360,3.0,4.0,85,0.00,,,0.00,0.00,VWS V14.01,2013-09-28 00:27:00,
2013-09-27 20:30:00,58.0,51.9,30.21,NNE,21,1.0,6.0,80,0.00,,,0.00,0.00,VWS V14.01,2013-09-28 00:30:00,
2013-09-27 20:32:00,56.1,51.7,30.23,NNW,345,1.0,4.0,85,0.00,,,0.00,0.00,VWS V14.01,2013-09-28 00:32:00,
2013-09-27 20:37:00,56.0,51.6,30.23,NNW,347,0.0,4.0,85,0.00,,,0.00,0.00,VWS V14.01,2013-09-28 00:37:00,
2013-09-27 20:42:00,56.0,51.9,30.23,NNW,347,2.0,4.0,86,0.00,,,0.00,0.00,VWS V14.01,2013-09-28 00:42:00,
2013-09-27 20:45:00,57.5,51.7,30.21,NNW,341,0.0,8.0,81,0.00,,,0.00,0.00,VWS V14.01,2013-09-28 00:45:00,
2013-09-27 20:47:00,55.9,51.8,30.23,NNW,343,2.0,3.0,86,0.00,,,0.00,0.00,VWS V14.01,2013-09-28 00:47:00,
2013-09-27 20:52:00,55.8,51.7,30.23,NNW,341,0.0,3.0,86,0.00,,,0.00,0.00,VWS V14.01,2013-09-28 00:52:00,
2013-09-27 20:57:00,55.8,51.7,30.23,NNW,348,2.0,4.0,86,0.00,,,0.00,0.00,VWS V14.01,2013-09-28 00:57:00,
2013-09-27 21:00:00,56.8,51.7,30.22,NNW,345,2.0,4.0,83,0.00,,,0.00,0.00,VWS V14.01,2013-09-28 01:00:00,
2013-09-27 21:02:00,55.7,51.6,30.23,NNW,347,2.0,3.0,86,0.00,,,0.00,0.00,VWS V14.01,2013-09-28 01:02:00,
2013-09-27 21:07:00,55.6,51.5,30.23,NNW,341,3.0,5.0,86,0.00,,,0.00,0.00,VWS V14.01,2013-09-28 01:07:00,
2013-09-27 21:12:00,55.5,51.4,30.23,NNW,339,3.0,5.0,86,0.00,,,0.00,0.00,VWS V14.01,2013-09-28 01:12:00,
2013-09-27 21:15:00,56.4,51.6,30.22,North,360,2.0,5.0,84,0.00,,,0.00,0.00,VWS V14.01,2013-09-28 01:15:00,
2013-09-27 21:17:00,55.3,51.2,30.23,NNW,343,3.0,5.0,86,0.00,,,0.00,0.00,VWS V14.01,2013-09-28 01:17:00,
2013-09-27 21:22:00,55.1,51.0,30.23,NNW,345,1.0,5.0,86,0.00,,,0.00,0.00,VWS V14.01,2013-09-28 01:22:00,
2013-09-27 21:27:00,55.0,51.2,30.23,NNW,345,2.0,5.0,87,0.00,,,0.00,0.00,VWS V14.01,2013-09-28 01:27:00,
2013-09-27 21:30:00,56.1,51.7,30.22,NNW,346,2.0,4.0,85,0.00,,,0.00,0.00,VWS V14.01,2013-09-28 01:30:00,
2013-09-27 21:32:00,54.8,51.0,30.24,North,349,1.0,3.0,87,0.00,,,0.00,0.00,VWS V14.01,2013-09-28 01:32:00,
2013-09-27 21:37:00,54.8,51.0,30.24,NNW,342,3.0,4.0,87,0.00,,,0.00,0.00,VWS V14.01,2013-09-28 01:37:00,
2013-09-27 21:42:00,54.8,51.0,30.24,NNW,345,1.0,4.0,87,0.00,,,0.00,0.00,VWS V14.01,2013-09-28 01:42:00,
2013-09-27 21:45:00,55.9,51.8,30.23,NNW,343,3.0,4.0,86,0.00,,,0.00,0.00,VWS V14.01,2013-09-28 01:45:00,
2013-09-27 21:47:00,54.7,50.9,30.24,NNW,341,3.0,4.0,87,0.00,,,0.00,0.00,VWS V14.01,2013-09-28 01:47:00,
2013-09-27 21:52:00,54.6,50.8,30.24,NNW,340,1.0,4.0,87,0.00,,,0.00,0.00,VWS V14.01,2013-09-28 01:52:00,
2013-09-27 21:57:00,54.5,50.7,30.24,NNW,338,1.0,4.0,87,0.00,,,0.00,0.00,VWS V14.01,2013-09-28 01:57:00,
2013-09-27 22:00:00,55.7,51.6,30.23,NNW,343,2.0,4.0,86,0.00,,,0.00,0.00,VWS V14.01,2013-09-28 02:00:00,
2013-09-27 22:02:00,54.4,50.9,30.24,NNW,338,1.0,2.0,88,0.00,,,0.00,0.00,VWS V14.01,2013-09-28 02:02:00,
2013-09-27 22:07:00,54.6,51.1,30.25,NNW,339,2.0,3.0,88,0.00,,,0.00,0.00,VWS V14.01,2013-09-28 02:07:00,
2013-09-27 22:12:00,54.8,51.0,30.25,NNW,347,3.0,4.0,87,0.00,,,0.00,0.00,VWS V14.01,2013-09-28 02:12:00,
2013-09-27 22:15:00,55.4,51.3,30.23,NNW,343,5.0,5.0,86,0.00,,,0.00,0.00,VWS V14.01,2013-09-28 02:15:00,
2013-09-27 22:17:00,54.8,51.0,30.25,NNW,342,4.0,4.0,87,0.00,,,0.00,0.00,VWS V14.01,2013-09-28 02:17:00,
2013-09-27 22:22:00,54.9,50.8,30.25,NNW,348,3.0,5.0,86,0.00,,,0.00,0.00,VWS V14.01,2013-09-28 02:22:00,
2013-09-27 22:27:00,55.1,51.0,30.25,North,349,4.0,5.0,86,0.00,,,0.00,0.00,VWS V14.01,2013-09-28 02:27:00,
2013-09-27 22:30:00,54.9,51.1,30.23,North,349,2.0,5.0,87,0.00,,,0.00,0.00,VWS V14.01,2013-09-28 02:30:00,
2013-09-27 22:32:00,55.2,51.1,30.25,North,354,2.0,4.0,86,0.00,,,0.00,0.00,VWS V14.01,2013-09-28 02:32:00,
2013-09-27 22:37:00,55.2,50.8,30.25,NNW,348,5.0,5.0,85,0.00,,,0.00,0.00,VWS V14.01,2013-09-28 02:37:00,
2013-09-27 22:42:00,55.3,50.9,30.25,North,349,4.0,5.0,85,0.00,,,0.00,0.00,VWS V14.01,2013-09-28 02:42:00,
2013-09-27 22:45:00,54.7,50.9,30.24,NNW,343,3.0,5.0,87,0.00,,,0.00,0.00,VWS V14.01,2013-09-28 02:45:00,
2013-09-27 22:47:00,55.2,50.8,30.25,North,350,3.0,4.0,85,0.00,,,0.00,0.00,VWS V14.01,2013-09-28 02:47:00,
2013-09-27 22:52:00,55.0,50.6,30.25,North,349,5.0,5.0,85,0.00,,,0.00,0.00,VWS V14.01,2013-09-28 02:52:00,
2013-09-27 22:57:00,54.8,50.7,30.25,NNW,343,2.0,5.0,86,0.00,,,0.00,0.00,VWS V14.01,2013-09-28 02:57:00,
2013-09-27 23:00:00,54.4,50.9,30.24,NNW,338,1.0,4.0,88,0.00,,,0.00,0.00,VWS V14.01,2013-09-28 03:00:00,
2013-09-27 23:02:00,54.8,50.7,30.25,NNW,344,3.0,3.0,86,0.00,,,0.00,0.00,VWS V14.01,2013-09-28 03:02:00,
2013-09-27 23:07:00,54.7,50.6,30.25,North,350,3.0,5.0,86,0.00,,,0.00,0.00,VWS V14.01,2013-09-28 03:07:00,
2013-09-27 23:12:00,54.6,50.8,30.25,NNW,341,1.0,5.0,87,0.00,,,0.00,0.00,VWS V14.01,2013-09-28 03:12:00,
2013-09-27 23:15:00,54.8,51.0,30.25,NNW,347,3.0,4.0,87,0.00,,,0.00,0.00,VWS V14.01,2013-09-28 03:15:00,
2013-09-27 23:17:00,54.5,50.7,30.25,NNW,346,2.0,4.0,87,0.00,,,0.00,0.00,VWS V14.01,2013-09-28 03:17:00,
2013-09-27 23:22:00,54.6,50.8,30.25,NNW,347,3.0,4.0,87,0.00,,,0.00,0.00,VWS V14.01,2013-09-28 03:22:00,
2013-09-27 23:27:00,54.7,50.9,30.25,North,351,4.0,5.0,87,0.00,,,0.00,0.00,VWS V14.01,2013-09-28 03:27:00,
2013-09-27 23:30:00,55.1,51.0,30.24,North,349,4.0,5.0,86,0.00,,,0.00,0.00,VWS V14.01,2013-09-28 03:30:00,
2013-09-27 23:32:00,54.9,50.8,30.25,North,350,3.0,4.0,86,0.00,,,0.00,0.00,VWS V14.01,2013-09-28 03:32:00,
2013-09-27 23:37:00,55.1,50.7,30.25,North,354,3.0,5.0,85,0.00,,,0.00,0.00,VWS V14.01,2013-09-28 03:37:00,
2013-09-27 23:42:00,55.2,50.5,30.25,North,355,3.0,5.0,84,0.00,,,0.00,0.00,VWS V14.01,2013-09-28 03:42:00,
2013-09-27 23:45:00,55.2,50.8,30.25,North,351,4.0,5.0,85,0.00,,,0.00,0.00,VWS V14.01,2013-09-28 03:45:00,
2013-09-27 23:47:00,55.3,50.6,30.25,North,351,3.0,5.0,84,0.00,,,0.00,0.00,VWS V14.01,2013-09-28 03:47:00,
2013-09-27 23:52:00,55.5,50.4,30.25,NNW,348,1.0,5.0,83,0.00,,,0.00,0.00,VWS V14.01,2013-09-28 03:52:00,
2013-09-27 23:57:00,55.4,50.3,30.25,NNW,346,3.0,5.0,83,0.00,,,0.00,0.00,VWS V14.01,2013-09-28 03:57:00,